Time;durP1;ratioP1;P1;durP2;ratioP2;P2;SDS_P1;SDS_P2;PMS_P1;PMS_P2;Temp;Humidity;BMP_temperature;BMP_pressure;BME280_temperature;BME280_humidity;BME280_pressure;Samples;Min_cycle;Max_cycle;Signal;HPM_P1;HPM_P2
2022/02/03 07:27:46;;;;;;;4.70;1.73;;;;;;;7.74;90.41;100519.94;3275179;26;20062;-81
2022/02/03 07:30:18;;;;;;;2.53;1.52;;;;;;;7.77;90.92;100520.09;4918820;29;20048;-80
2022/02/03 07:32:53;;;;;;;3.53;1.60;;;;;;;7.79;90.76;100512.28;4903950;29;20498;-80
2022/02/03 07:35:29;;;;;;;3.63;1.77;;;;;;;7.76;90.58;100506.63;4919184;29;20054;-81
2022/02/03 07:38:08;;;;;;;3.13;1.35;;;;;;;7.74;90.88;100515.25;4904239;29;20058;-81
2022/02/03 07:40:41;;;;;;;5.32;1.40;;;;;;;7.74;90.82;100514.44;4918773;29;20124;-80
2022/02/03 07:43:47;;;;;;;2.85;1.45;;;;;;;7.70;90.96;100508.78;4895158;29;20110;-79
2022/02/03 07:46:16;;;;;;;4.88;1.13;;;;;;;7.71;90.54;100499.38;4918835;29;20048;-80
2022/02/03 07:48:46;;;;;;;4.70;1.63;;;;;;;7.71;90.54;100501.31;4935974;29;20049;-79
2022/02/03 07:51:13;;;;;;;2.22;1.10;;;;;;;7.69;90.89;100509.91;4903121;29;20111;-79
2022/02/03 07:53:41;;;;;;;4.65;1.10;;;;;;;7.69;90.94;100489.81;4903007;29;20059;-79
2022/02/03 07:56:08;;;;;;;1.95;1.10;;;;;;;7.68;91.08;100511.03;4918609;29;20063;-79
2022/02/03 07:58:36;;;;;;;2.95;1.00;;;;;;;7.68;90.96;100511.03;4935522;29;20047;-79
2022/02/03 08:01:03;;;;;;;4.88;0.95;;;;;;;7.69;91.12;100514.63;4902443;29;20051;-79
2022/02/03 08:03:30;;;;;;;2.75;0.90;;;;;;;7.67;91.16;100514.97;4918500;29;20056;-79
2022/02/03 08:06:02;;;;;;;4.15;1.05;;;;;;;7.68;91.05;100513.81;4918311;29;20059;-80
2022/02/03 08:08:44;;;;;;;1.02;0.60;;;;;;;7.68;91.12;100505.53;4902774;29;20051;-79
2022/02/03 08:11:17;;;;;;;2.78;1.05;;;;;;;7.70;90.94;100513.50;4902334;29;20502;-79
2022/02/03 08:13:53;;;;;;;2.30;1.02;;;;;;;7.70;90.85;100514.31;4934738;29;20454;-79
2022/02/03 08:16:31;;;;;;;4.10;0.80;;;;;;;7.70;90.96;100492.25;4918739;29;20044;-79
2022/02/03 08:19:07;;;;;;;1.92;0.75;;;;;;;7.71;90.88;100493.03;4918112;29;20147;-79
2022/02/03 08:21:38;;;;;;;5.85;1.13;;;;;;;7.71;90.83;100488.34;4902602;29;20878;-79
2022/02/03 08:26:48;;;;;;;2.70;1.33;;;;;;;7.74;90.83;100492.38;4920783;28;20500;-80
2022/02/03 08:29:37;;;;;;;3.45;1.05;;;;;;;7.73;90.76;100497.09;4936852;29;20126;-79
2022/02/03 08:32:11;;;;;;;4.65;1.65;;;;;;;7.75;90.66;100494.81;4936574;29;20043;-79
2022/02/03 08:37:13;;;;;;;4.43;1.20;;;;;;;7.77;90.67;100498.03;4954031;29;20106;-79
2022/02/03 08:39:54;;;;;;;2.05;1.60;;;;;;;7.80;90.79;100491.88;4937184;29;20058;-79
2022/02/03 08:42:28;;;;;;;3.03;0.82;;;;;;;7.86;90.70;100485.00;4953675;29;20040;-79
2022/02/03 08:49:07;;;;;;;1.27;0.57;;;;;;;7.97;90.83;100486.25;4890702;29;20047;-80
2022/02/03 08:51:45;;;;;;;2.70;0.73;;;;;;;8.03;90.61;100478.59;4953695;29;20055;-80
2022/02/03 08:54:20;;;;;;;3.90;0.57;;;;;;;8.05;90.38;100486.53;4953219;29;20043;-79
2022/02/03 08:57:01;;;;;;;2.60;0.98;;;;;;;8.09;90.34;100479.19;4953065;29;20381;-78
2022/02/03 09:40:56;;;;;;;2.65;0.60;;;;;;;8.77;88.82;100419.88;4953058;29;20057;-79
2022/02/03 09:59:49;;;;;;;3.47;1.33;;;;;;;9.14;87.15;100424.34;4952690;29;20058;-78
2022/02/03 10:02:25;;;;;;;7.63;1.58;;;;;;;9.19;86.92;100421.34;4952774;29;20505;-79
2022/02/03 10:05:11;;;;;;;4.68;0.88;;;;;;;9.25;86.73;100424.69;4952769;29;20508;-78
2022/02/03 10:07:39;;;;;;;9.13;1.20;;;;;;;9.30;86.34;100418.94;4935584;29;20150;-78
2022/02/03 10:10:15;;;;;;;6.82;0.80;;;;;;;9.34;86.00;100417.94;4952651;29;20103;-80
2022/02/03 10:13:00;;;;;;;3.65;0.80;;;;;;;9.39;86.05;100414.13;4920041;29;20057;-81
2022/02/03 10:23:31;;;;;;;8.00;1.00;;;;;;;9.59;85.45;100413.19;4839585;29;20073;-77
2022/02/03 10:26:07;;;;;;;7.63;0.85;;;;;;;9.60;84.43;100399.03;4955667;28;20062;-78
2022/02/03 10:28:37;;;;;;;7.05;1.35;;;;;;;9.64;85.05;100405.47;4938723;29;20050;-78
2022/02/03 10:31:05;;;;;;;2.15;0.52;;;;;;;9.68;85.22;100395.34;4938932;29;20059;-78
2022/02/03 10:33:40;;;;;;;4.65;0.90;;;;;;;9.69;84.94;100390.59;4955856;29;20083;-78
2022/02/03 10:36:21;;;;;;;6.47;1.08;;;;;;;9.66;84.80;100391.31;4939289;29;20051;-78
2022/02/03 10:39:23;;;;;;;2.67;0.68;;;;;;;9.63;84.59;100380.94;4938745;29;20093;-78
2022/02/03 10:47:40;;;;;;;4.88;1.08;;;;;;;9.56;84.52;100377.94;4938850;29;20134;-78
2022/02/03 10:50:22;;;;;;;3.30;0.70;;;;;;;9.56;84.61;100369.66;4955826;29;20063;-78
2022/02/03 10:53:14;;;;;;;3.28;0.50;;;;;;;9.58;84.70;100373.69;4955601;29;20078;-78
2022/02/03 11:03:33;;;;;;;5.85;1.45;;;;;;;9.76;84.19;100386.13;4938293;29;20061;-78
2022/02/03 11:06:12;;;;;;;4.68;0.80;;;;;;;9.82;84.09;100378.38;4938907;29;20051;-78
2022/02/03 11:08:55;;;;;;;6.55;0.95;;;;;;;9.84;83.98;100375.25;4955799;29;20045;-79
2022/02/03 11:11:34;;;;;;;2.45;0.82;;;;;;;9.83;83.82;100368.91;4936959;29;20047;-79
2022/02/03 11:14:04;;;;;;;3.15;1.20;;;;;;;9.83;83.75;100379.97;4955050;29;20054;-78
2022/02/03 11:16:38;;;;;;;5.68;1.02;;;;;;;9.85;83.68;100387.94;4938033;29;20434;-78
2022/02/03 11:19:10;;;;;;;4.82;1.00;;;;;;;9.93;83.55;100384.25;4938092;29;20051;-78
2022/02/03 11:21:40;;;;;;;4.40;1.00;;;;;;;10.00;83.66;100395.50;4955134;29;20039;-79
2022/02/03 11:24:23;;;;;;;5.88;2.05;;;;;;;10.02;83.27;100391.22;4938156;29;20083;-78
2022/02/03 11:27:09;;;;;;;5.07;1.38;;;;;;;10.05;83.12;100398.84;4917897;29;20051;-78
2022/02/03 11:50:32;;;;;;;5.03;1.20;;;;;;;9.91;83.24;100309.91;4918401;29;20074;-82
2022/02/03 11:56:28;;;;;;;7.28;1.20;;;;;;;9.92;82.77;100300.47;4918790;29;20131;-80
2022/02/03 12:11:03;;;;;;;3.38;1.10;;;;;;;10.21;82.05;100283.53;4918396;29;20083;-80
2022/02/03 12:16:07;;;;;;;12.68;2.17;;;;;;;10.37;82.41;100278.03;4936043;29;20577;-80
2022/02/03 12:19:16;;;;;;;10.15;0.90;;;;;;;10.43;81.62;100289.66;4903665;29;20490;-80
2022/02/03 12:21:56;;;;;;;4.05;0.80;;;;;;;10.43;82.39;100279.41;4933909;29;20516;-81
2022/02/03 12:24:35;;;;;;;5.15;1.73;;;;;;;10.44;82.30;100271.88;4917974;29;20054;-80
2022/02/03 12:27:25;;;;;;;5.82;0.88;;;;;;;10.42;81.86;100265.88;4924111;29;20387;-80
2022/02/03 12:30:02;;;;;;;6.05;1.10;;;;;;;10.46;82.66;100266.81;4937332;29;20087;-81
2022/02/03 12:33:04;;;;;;;1.63;0.82;;;;;;;10.53;82.27;100266.97;4921037;29;20460;-80
2022/02/03 12:38:32;;;;;;;5.25;0.98;;;;;;;10.72;81.92;100256.00;4936663;29;20465;-80
2022/02/03 12:41:12;;;;;;;5.88;1.98;;;;;;;10.77;81.60;100253.78;4921018;29;20107;-81
2022/02/03 12:43:55;;;;;;;3.72;1.08;;;;;;;10.83;81.14;100243.19;4936456;29;20504;-81
2022/02/03 12:46:22;;;;;;;3.42;1.10;;;;;;;10.85;81.42;100243.66;4936754;29;20481;-80
2022/02/03 12:48:55;;;;;;;2.78;0.80;;;;;;;10.90;81.21;100232.31;4952614;28;20482;-80
2022/02/03 12:51:23;;;;;;;5.90;1.08;;;;;;;10.99;81.20;100233.72;4936374;29;20165;-81
2022/02/03 12:53:53;;;;;;;6.05;0.90;;;;;;;11.08;81.22;100236.28;4936965;29;20047;-80
2022/02/03 12:56:27;;;;;;;2.03;0.70;;;;;;;11.17;80.39;100206.44;4953611;29;20122;-81
2022/02/03 12:59:00;;;;;;;3.95;0.98;;;;;;;11.23;80.19;100209.69;4936132;29;20055;-81
2022/02/03 13:01:33;;;;;;;5.97;0.90;;;;;;;11.31;80.27;100211.47;4953407;29;20039;-81
2022/02/03 13:04:07;;;;;;;4.97;0.90;;;;;;;11.36;80.05;100202.84;4953601;29;20043;-81
2022/02/03 13:06:39;;;;;;;5.32;1.15;;;;;;;11.42;79.71;100198.63;4953390;29;20054;-81
2022/02/03 13:09:08;;;;;;;;;;;;;;;11.41;78.09;100199.81;4936883;29;20062;-80
2022/02/03 13:14:25;;;;;;;4.30;0.75;;;;;;;11.33;78.91;100175.91;4936396;29;20051;-81
2022/02/03 13:17:12;;;;;;;4.00;0.73;;;;;;;11.31;79.15;100190.09;4920544;29;20150;-81
2022/02/03 13:20:23;;;;;;;2.03;0.90;;;;;;;11.31;78.40;100183.75;4953077;29;20047;-81
2022/02/03 13:23:01;;;;;;;5.40;0.75;;;;;;;11.33;78.06;100171.13;4936422;29;20111;-80
2022/02/03 13:28:07;;;;;;;3.70;1.33;;;;;;;11.34;78.64;100183.84;4932131;29;20510;-81
2022/02/03 13:30:48;;;;;;;8.13;0.80;;;;;;;11.36;78.51;100197.31;4916927;29;20079;-81
2022/02/03 13:33:26;;;;;;;5.32;1.00;;;;;;;11.41;78.56;100194.28;4933597;29;20127;-81
2022/02/03 13:36:03;;;;;;;3.97;0.82;;;;;;;11.49;78.49;100196.03;4933867;29;20050;-80
2022/02/03 13:38:55;;;;;;;5.03;1.10;;;;;;;11.53;78.21;100197.69;4917026;29;20103;-82
2022/02/03 13:41:26;;;;;;;1.27;0.73;;;;;;;11.55;77.66;100180.69;4932244;29;20058;-81
2022/02/03 13:44:02;;;;;;;4.80;0.80;;;;;;;11.50;77.70;100184.56;4933386;29;20138;-80
2022/02/03 13:46:36;;;;;;;3.30;0.70;;;;;;;11.48;77.89;100172.25;4932565;29;20102;-80
2022/02/03 13:49:12;;;;;;;3.45;0.70;;;;;;;11.48;77.93;100178.59;4932691;29;20051;-81
2022/02/03 13:51:43;;;;;;;4.65;1.10;;;;;;;11.42;77.75;100168.97;4917029;29;20063;-81
2022/02/03 13:54:47;;;;;;;3.65;0.82;;;;;;;11.39;77.04;100175.22;4933503;29;20777;-80
2022/02/03 14:18:09;;;;;;;2.83;0.70;;;;;;;11.46;77.58;100144.88;4858720;29;20052;-81
2022/02/03 14:20:41;;;;;;;3.20;0.45;;;;;;;11.49;77.81;100141.38;4859569;29;20065;-82
2022/02/03 15:29:35;;;;;;;;;;;;;;;;;;;;;
2022/02/03 16:19:09;;;;;;;9.38;1.77;;;;;;;10.97;76.11;99925.84;5784080;23;8868838;-80
2022/02/03 16:51:12;;;;;;;;;;;;;;;;;;;;;
2022/02/03 16:54:36;;;;;;;;;;;;;;;;;;;;;
2022/02/03 17:01:20;;;;;;;;;;;;;;;;;;;;;
2022/02/03 17:04:03;;;;;;;14.50;2.85;;;;;;;10.60;76.91;99854.72;5931657;24;20426;-80
2022/02/03 17:10:52;;;;;;;14.98;3.97;;;;;;;10.61;77.13;99859.09;6160746;23;20351;-82
2022/02/03 17:23:16;;;;;;;;;;;;;;;;;;;;;
2022/02/03 17:27:20;;;;;;;;;;;;;;;;;;;;;
2022/02/03 18:02:57;;;;;;;12.48;3.22;;;;;;;10.74;76.96;99843.91;6124363;23;20022;-78
2022/02/03 18:08:55;;;;;;;10.80;1.80;;;;;;;10.76;77.33;99819.44;6039099;23;20465;-80
2022/02/03 18:11:35;;;;;;;10.07;2.00;;;;;;;10.74;77.41;99817.03;6039023;23;20026;-79
2022/02/03 20:14:02;;;;;;;1.90;0.63;;;;;;;8.40;83.50;99897.63;5540205;22;15992896;-82
2022/02/03 20:22:38;;;;;;;2.50;1.27;;;;;;;8.29;83.04;99915.84;6165084;23;20026;-81
2022/02/03 20:29:25;;;;;;;4.07;1.88;;;;;;;8.16;83.94;99931.59;6146953;23;20606;-82
2022/02/03 20:32:49;;;;;;;;;;;;;;;;;;;;;
2022/02/03 20:37:13;;;;;;;;;;;;;;;;;;;;;
2022/02/03 20:45:19;;;;;;;2.97;1.70;;;;;;;8.06;84.44;99980.88;5677566;25;20021;-82
2022/02/03 20:48:21;;;;;;;;;;;;;;;;;;;;;
2022/02/03 20:50:58;;;;;;;9.60;1.75;;;;;;;8.01;84.09;99978.38;5724336;24;20070;-81
2022/02/03 21:10:46;;;;;;;;;;;;;;;;;;;;;
2022/02/03 21:19:16;;;;;;;;;;;;;;;;;;;;;
2022/02/03 21:23:08;;;;;;;3.97;1.48;;;;;;;7.72;84.45;100046.38;6081763;23;20088;-85
2022/02/03 21:25:52;;;;;;;2.38;0.50;;;;;;;7.64;84.20;100052.78;6093592;23;20044;-82
2022/02/03 21:28:28;;;;;;;2.60;0.47;;;;;;;7.48;83.97;100060.09;6154380;23;20014;-82
2022/02/03 21:30:56;;;;;;;2.83;0.55;;;;;;;7.44;84.24;100053.66;6153011;23;20021;-83
2022/02/03 21:33:29;;;;;;;1.05;0.57;;;;;;;7.43;84.10;100060.31;6152768;23;20049;-81
2022/02/03 21:36:07;;;;;;;2.00;0.40;;;;;;;7.32;83.67;100061.88;6152986;23;20127;-82
2022/02/03 21:38:35;;;;;;;4.15;0.70;;;;;;;7.28;83.74;100063.72;6152901;23;20014;-82
2022/02/03 21:41:03;;;;;;;4.70;1.27;;;;;;;7.21;83.97;100088.22;6152852;23;20052;-81
2022/02/03 21:43:32;;;;;;;5.93;1.38;;;;;;;7.20;84.09;100081.13;6152779;23;20033;-82
2022/02/03 21:46:00;;;;;;;3.33;1.45;;;;;;;7.13;83.66;100086.38;6152848;23;20043;-83
2022/02/03 21:48:27;;;;;;;1.65;0.85;;;;;;;7.15;83.65;100089.56;6152597;23;20029;-82
2022/02/03 21:50:55;;;;;;;3.22;0.90;;;;;;;7.13;83.67;100087.16;6154095;23;20017;-80
2022/02/03 21:53:26;;;;;;;1.00;0.52;;;;;;;7.15;84.09;100092.31;6154328;23;20447;-82
2022/02/03 21:55:55;;;;;;;4.15;0.98;;;;;;;7.09;83.53;100096.44;6127892;23;20021;-81
2022/02/03 21:58:25;;;;;;;2.47;0.90;;;;;;;7.09;83.67;100101.97;6152443;23;20104;-82
2022/02/03 22:00:58;;;;;;;5.80;0.88;;;;;;;7.08;83.20;100094.84;6128147;23;20025;-81
2022/02/03 22:03:30;;;;;;;2.55;1.10;;;;;;;7.10;83.31;100109.06;6152127;23;20022;-84
2022/02/03 22:06:04;;;;;;;4.70;0.98;;;;;;;7.11;83.20;100099.66;6154458;23;20013;-83
2022/02/03 22:08:33;;;;;;;3.30;0.93;;;;;;;7.17;83.13;100103.81;6152168;23;20017;-83
2022/02/03 22:11:01;;;;;;;3.17;1.00;;;;;;;7.23;83.05;100105.22;6154049;23;20014;-83
2022/02/03 22:13:37;;;;;;;2.90;0.80;;;;;;;7.22;82.60;100103.63;6152312;23;20049;-83
2022/02/03 22:16:20;;;;;;;8.70;1.42;;;;;;;7.14;82.96;100099.81;6152477;23;20017;-84
2022/02/03 22:18:52;;;;;;;6.53;1.63;;;;;;;7.11;82.99;100099.66;6153544;23;20020;-85
2022/02/03 22:24:27;;;;;;;5.40;1.40;;;;;;;7.09;83.16;100101.97;6152363;23;20076;-81
2022/02/03 22:43:16;;;;;;;5.97;1.70;;;;;;;7.16;83.13;100115.97;6153532;23;20519;-82
2022/02/03 22:46:38;;;;;;;4.25;1.38;;;;;;;7.12;83.38;100109.53;6153808;23;20415;-82
2022/02/03 22:48:56;;;;;;;7.97;2.70;;;;;;;7.13;83.49;100111.13;6145395;23;20022;-83
2022/02/03 22:51:24;;;;;;;7.85;2.72;;;;;;;7.10;83.29;100111.81;6127954;23;20052;-83
2022/02/03 22:53:57;;;;;;;4.60;1.42;;;;;;;7.10;83.70;100111.81;6151889;23;20017;-83
2022/02/03 22:56:24;;;;;;;5.90;1.25;;;;;;;7.07;83.48;100109.75;6152068;23;20113;-82
2022/02/03 23:02:00;;;;;;;2.67;1.38;;;;;;;6.92;84.12;100119.41;6151938;23;20029;-83
2022/02/03 23:04:37;;;;;;;4.93;1.40;;;;;;;6.92;84.05;100124.91;6151780;23;20069;-84
2022/02/03 23:07:21;;;;;;;9.13;3.72;;;;;;;6.91;84.26;100133.53;6151707;23;20010;-83
2022/02/03 23:10:22;;;;;;;3.20;1.58;;;;;;;6.95;84.56;100134.44;6152054;23;20028;-85
2022/02/03 23:17:51;;;;;;;6.88;1.20;;;;;;;6.87;84.22;100132.56;6067141;23;20025;-79
2022/02/03 23:20:00;;;;;;;5.05;3.03;;;;;;;6.87;84.05;100132.56;6081174;23;20453;-79
2022/02/03 23:22:27;;;;;;;4.93;1.17;;;;;;;6.86;84.11;100123.50;6127036;23;20035;-79
2022/02/03 23:24:55;;;;;;;7.85;1.55;;;;;;;6.89;84.51;100127.53;6152083;23;20024;-80
2022/02/03 23:29:52;;;;;;;7.82;1.40;;;;;;;6.86;84.34;100130.97;6151789;23;20032;-79
2022/02/03 23:32:20;;;;;;;7.75;1.73;;;;;;;6.87;84.40;100116.06;6153388;23;20330;-79
2022/02/03 23:34:56;;;;;;;8.77;1.52;;;;;;;6.85;84.25;100121.09;6152839;23;20100;-79
2022/02/03 23:37:23;;;;;;;8.20;1.77;;;;;;;6.87;83.74;100116.06;6151734;23;20018;-78
2022/02/03 23:48:42;;;;;;;7.15;1.90;;;;;;;6.82;83.94;100113.50;6153679;23;20027;-79
